sensor_id;sensor_type;location;lat;lon;timestamp;pressure;altitude;pressure_sealevel;temperature;humidity
15444;BME280;7822;48.146;11.576;2022-07-23T00:01:32;95485.94;;;27.56;46.17
15444;BME280;7822;48.146;11.576;2022-07-23T00:04:00;95472.47;;;27.51;46.07
15444;BME280;7822;48.146;11.576;2022-07-23T00:06:28;95474.22;;;27.39;46.44
15444;BME280;7822;48.146;11.576;2022-07-23T00:08:59;95477.94;;;27.38;46.27
15444;BME280;7822;48.146;11.576;2022-07-23T00:11:27;95475.50;;;27.36;46.14
15444;BME280;7822;48.146;11.576;2022-07-23T00:13:55;95462.25;;;27.23;46.56
15444;BME280;7822;48.146;11.576;2022-07-23T00:16:26;95455.78;;;27.12;46.50
15444;BME280;7822;48.146;11.576;2022-07-23T00:18:54;95457.84;;;27.10;46.46
15444;BME280;7822;48.146;11.576;2022-07-23T00:21:21;95459.88;;;27.15;46.70
15444;BME280;7822;48.146;11.576;2022-07-23T00:23:49;95462.94;;;27.18;45.73
15444;BME280;7822;48.146;11.576;2022-07-23T00:26:17;95459.22;;;27.19;45.71
15444;BME280;7822;48.146;11.576;2022-07-23T00:28:44;95464.13;;;27.23;45.41
15444;BME280;7822;48.146;11.576;2022-07-23T00:31:12;95471.28;;;27.22;45.21
15444;BME280;7822;48.146;11.576;2022-07-23T00:33:41;95475.50;;;27.11;45.76
15444;BME280;7822;48.146;11.576;2022-07-23T00:36:09;95471.47;;;27.02;46.29
15444;BME280;7822;48.146;11.576;2022-07-23T00:38:37;95467.97;;;27.02;46.34
15444;BME280;7822;48.146;11.576;2022-07-23T00:41:04;95473.72;;;26.99;46.42
15444;BME280;7822;48.146;11.576;2022-07-23T00:43:32;95481.78;;;26.92;46.14
15444;BME280;7822;48.146;11.576;2022-07-23T00:46:00;95488.38;;;26.90;46.20
15444;BME280;7822;48.146;11.576;2022-07-23T00:48:27;95488.81;;;26.87;46.28
15444;BME280;7822;48.146;11.576;2022-07-23T00:50:57;95503.53;;;26.89;46.00
15444;BME280;7822;48.146;11.576;2022-07-23T00:53:25;95502.75;;;26.82;46.06
15444;BME280;7822;48.146;11.576;2022-07-23T00:55:53;95503.41;;;26.71;46.89
15444;BME280;7822;48.146;11.576;2022-07-23T00:58:21;95507.09;;;26.70;46.92
15444;BME280;7822;48.146;11.576;2022-07-23T01:00:48;95506.50;;;26.68;47.12
15444;BME280;7822;48.146;11.576;2022-07-23T01:03:16;95510.84;;;26.63;47.55
15444;BME280;7822;48.146;11.576;2022-07-23T01:05:44;95535.41;;;26.65;47.45
15444;BME280;7822;48.146;11.576;2022-07-23T01:08:14;95537.56;;;26.50;47.90
15444;BME280;7822;48.146;11.576;2022-07-23T01:10:42;95564.19;;;26.43;47.76
15444;BME280;7822;48.146;11.576;2022-07-23T01:13:09;95580.81;;;26.32;48.33
15444;BME280;7822;48.146;11.576;2022-07-23T01:15:38;95578.25;;;26.12;49.32
15444;BME280;7822;48.146;11.576;2022-07-23T01:18:07;95630.00;;;25.97;50.77
15444;BME280;7822;48.146;11.576;2022-07-23T01:20:35;95639.00;;;25.89;50.79
15444;BME280;7822;48.146;11.576;2022-07-23T01:23:05;95651.91;;;25.72;51.82
15444;BME280;7822;48.146;11.576;2022-07-23T01:25:32;95649.25;;;25.66;51.54
15444;BME280;7822;48.146;11.576;2022-07-23T01:28:00;95674.00;;;25.66;51.86
15444;BME280;7822;48.146;11.576;2022-07-23T01:30:28;95666.38;;;25.24;49.92
15444;BME280;7822;48.146;11.576;2022-07-23T01:32:56;95679.41;;;24.99;50.00
15444;BME280;7822;48.146;11.576;2022-07-23T01:35:24;95663.44;;;24.86;50.49
15444;BME280;7822;48.146;11.576;2022-07-23T01:37:52;95676.69;;;24.80;51.00
15444;BME280;7822;48.146;11.576;2022-07-23T01:40:21;95669.38;;;24.54;50.60
15444;BME280;7822;48.146;11.576;2022-07-23T01:42:50;95656.31;;;24.46;51.27
15444;BME280;7822;48.146;11.576;2022-07-23T01:45:18;95647.72;;;24.44;51.82
15444;BME280;7822;48.146;11.576;2022-07-23T01:47:46;95634.50;;;24.51;51.77
15444;BME280;7822;48.146;11.576;2022-07-23T01:50:14;95637.38;;;24.56;52.30
15444;BME280;7822;48.146;11.576;2022-07-23T01:52:41;95636.56;;;24.62;52.94
15444;BME280;7822;48.146;11.576;2022-07-23T01:55:09;95656.31;;;24.46;54.26
15444;BME280;7822;48.146;11.576;2022-07-23T01:57:46;95661.38;;;24.41;53.93
15444;BME280;7822;48.146;11.576;2022-07-23T02:00:14;95645.63;;;24.33;54.36
15444;BME280;7822;48.146;11.576;2022-07-23T02:02:42;95633.38;;;24.25;54.99
15444;BME280;7822;48.146;11.576;2022-07-23T02:05:10;95615.81;;;24.24;55.59
15444;BME280;7822;48.146;11.576;2022-07-23T02:07:37;95618.50;;;24.31;55.60
15444;BME280;7822;48.146;11.576;2022-07-23T02:10:06;95615.72;;;24.59;55.66
15444;BME280;7822;48.146;11.576;2022-07-23T02:12:34;95616.56;;;24.66;55.43
15444;BME280;7822;48.146;11.576;2022-07-23T02:15:04;95615.41;;;24.75;56.27
15444;BME280;7822;48.146;11.576;2022-07-23T02:17:35;95630.53;;;24.81;55.35
15444;BME280;7822;48.146;11.576;2022-07-23T02:20:04;95627.28;;;24.85;54.94
15444;BME280;7822;48.146;11.576;2022-07-23T02:22:31;95610.56;;;24.85;54.75
15444;BME280;7822;48.146;11.576;2022-07-23T02:24:59;95605.56;;;24.69;54.49
15444;BME280;7822;48.146;11.576;2022-07-23T02:27:27;95620.66;;;24.68;55.38
15444;BME280;7822;48.146;11.576;2022-07-23T02:29:55;95608.31;;;24.41;55.45
15444;BME280;7822;48.146;11.576;2022-07-23T02:32:25;95582.09;;;24.12;56.46
15444;BME280;7822;48.146;11.576;2022-07-23T02:34:53;95576.91;;;24.04;56.16
15444;BME280;7822;48.146;11.576;2022-07-23T02:37:21;95570.31;;;23.87;56.84
15444;BME280;7822;48.146;11.576;2022-07-23T02:39:49;95565.22;;;23.85;56.23
15444;BME280;7822;48.146;11.576;2022-07-23T02:42:17;95551.75;;;23.87;56.65
15444;BME280;7822;48.146;11.576;2022-07-23T02:44:45;95544.69;;;24.00;55.95
15444;BME280;7822;48.146;11.576;2022-07-23T02:47:12;95549.22;;;24.06;56.32
15444;BME280;7822;48.146;11.576;2022-07-23T02:49:41;95564.59;;;24.17;56.22
15444;BME280;7822;48.146;11.576;2022-07-23T02:52:09;95566.47;;;24.37;55.88
15444;BME280;7822;48.146;11.576;2022-07-23T02:54:37;95584.91;;;24.51;56.30
15444;BME280;7822;48.146;11.576;2022-07-23T02:57:05;95608.38;;;24.54;55.30
15444;BME280;7822;48.146;11.576;2022-07-23T02:59:32;95617.16;;;24.61;56.03
15444;BME280;7822;48.146;11.576;2022-07-23T03:02:00;95641.91;;;24.68;57.36
15444;BME280;7822;48.146;11.576;2022-07-23T03:04:28;95671.28;;;24.26;58.40
15444;BME280;7822;48.146;11.576;2022-07-23T03:06:57;95679.88;;;24.00;59.11
15444;BME280;7822;48.146;11.576;2022-07-23T03:09:25;95656.00;;;23.94;58.97
15444;BME280;7822;48.146;11.576;2022-07-23T03:11:52;95681.00;;;23.85;57.85
15444;BME280;7822;48.146;11.576;2022-07-23T03:14:20;95675.09;;;23.83;58.71
15444;BME280;7822;48.146;11.576;2022-07-23T03:16:48;95662.53;;;23.98;58.51
15444;BME280;7822;48.146;11.576;2022-07-23T03:19:16;95669.50;;;23.99;57.62
15444;BME280;7822;48.146;11.576;2022-07-23T03:21:44;95670.72;;;24.03;58.71
15444;BME280;7822;48.146;11.576;2022-07-23T03:24:13;95645.75;;;24.12;59.03
15444;BME280;7822;48.146;11.576;2022-07-23T03:26:41;95658.78;;;24.13;58.31
15444;BME280;7822;48.146;11.576;2022-07-23T03:29:09;95650.03;;;24.19;57.90
15444;BME280;7822;48.146;11.576;2022-07-23T03:31:37;95649.09;;;24.27;57.71
15444;BME280;7822;48.146;11.576;2022-07-23T03:34:04;95633.41;;;24.32;57.71
15444;BME280;7822;48.146;11.576;2022-07-23T03:36:32;95614.00;;;24.32;58.41
15444;BME280;7822;48.146;11.576;2022-07-23T03:39:00;95577.72;;;24.32;57.09
15444;BME280;7822;48.146;11.576;2022-07-23T03:41:30;95552.19;;;24.31;58.15
15444;BME280;7822;48.146;11.576;2022-07-23T03:43:58;95544.44;;;24.29;58.70
15444;BME280;7822;48.146;11.576;2022-07-23T03:46:25;95497.09;;;24.26;57.35
15444;BME280;7822;48.146;11.576;2022-07-23T03:48:53;95501.81;;;24.31;57.63
15444;BME280;7822;48.146;11.576;2022-07-23T03:51:24;95549.91;;;24.21;56.74
15444;BME280;7822;48.146;11.576;2022-07-23T03:53:52;95561.31;;;24.15;57.16
15444;BME280;7822;48.146;11.576;2022-07-23T03:56:21;95565.84;;;24.28;56.26
15444;BME280;7822;48.146;11.576;2022-07-23T03:58:50;95565.06;;;24.34;55.46
15444;BME280;7822;48.146;11.576;2022-07-23T04:01:18;95565.88;;;24.35;55.77
15444;BME280;7822;48.146;11.576;2022-07-23T04:03:45;95558.13;;;24.33;55.49
15444;BME280;7822;48.146;11.576;2022-07-23T04:06:13;95557.91;;;24.35;56.06
15444;BME280;7822;48.146;11.576;2022-07-23T04:08:41;95554.88;;;24.38;56.28
15444;BME280;7822;48.146;11.576;2022-07-23T04:11:09;95551.81;;;24.34;55.47
15444;BME280;7822;48.146;11.576;2022-07-23T04:13:37;95558.94;;;24.34;55.38
15444;BME280;7822;48.146;11.576;2022-07-23T04:16:06;95548.31;;;24.34;55.18
15444;BME280;7822;48.146;11.576;2022-07-23T04:18:34;95550.16;;;24.33;55.32
15444;BME280;7822;48.146;11.576;2022-07-23T04:21:02;95553.44;;;24.35;54.91
15444;BME280;7822;48.146;11.576;2022-07-23T04:23:30;95540.38;;;24.34;54.51
15444;BME280;7822;48.146;11.576;2022-07-23T04:25:58;95522.63;;;24.34;55.10
15444;BME280;7822;48.146;11.576;2022-07-23T04:28:25;95516.72;;;24.32;54.63
15444;BME280;7822;48.146;11.576;2022-07-23T04:30:55;95508.78;;;24.39;54.98
15444;BME280;7822;48.146;11.576;2022-07-23T04:33:25;95502.66;;;24.38;54.09
15444;BME280;7822;48.146;11.576;2022-07-23T04:35:53;95509.78;;;24.38;54.85
15444;BME280;7822;48.146;11.576;2022-07-23T04:38:20;95506.50;;;24.36;54.08
15444;BME280;7822;48.146;11.576;2022-07-23T04:40:48;95520.59;;;24.36;54.32
15444;BME280;7822;48.146;11.576;2022-07-23T04:43:16;95528.97;;;24.40;54.44
15444;BME280;7822;48.146;11.576;2022-07-23T04:45:44;95528.56;;;24.43;54.58
15444;BME280;7822;48.146;11.576;2022-07-23T04:48:11;95512.66;;;24.43;54.06
15444;BME280;7822;48.146;11.576;2022-07-23T04:50:40;95520.63;;;24.49;54.49
15444;BME280;7822;48.146;11.576;2022-07-23T04:53:09;95515.94;;;24.51;54.14
15444;BME280;7822;48.146;11.576;2022-07-23T04:55:36;95516.53;;;24.53;53.89
15444;BME280;7822;48.146;11.576;2022-07-23T04:58:04;95507.16;;;24.51;53.42
15444;BME280;7822;48.146;11.576;2022-07-23T05:00:32;95502.88;;;24.50;53.47
15444;BME280;7822;48.146;11.576;2022-07-23T05:03:00;95506.53;;;24.49;53.56
15444;BME280;7822;48.146;11.576;2022-07-23T05:05:27;95511.44;;;24.45;52.90
15444;BME280;7822;48.146;11.576;2022-07-23T05:07:57;95520.41;;;24.44;53.91
15444;BME280;7822;48.146;11.576;2022-07-23T05:10:24;95515.72;;;24.46;53.09
15444;BME280;7822;48.146;11.576;2022-07-23T05:12:52;95515.09;;;24.44;53.07
15444;BME280;7822;48.146;11.576;2022-07-23T05:15:20;95505.69;;;24.42;53.49
15444;BME280;7822;48.146;11.576;2022-07-23T05:17:48;95501.44;;;24.41;53.45
15444;BME280;7822;48.146;11.576;2022-07-23T05:20:15;95508.34;;;24.42;53.16
15444;BME280;7822;48.146;11.576;2022-07-23T05:22:43;95507.34;;;24.43;53.52
15444;BME280;7822;48.146;11.576;2022-07-23T05:25:12;95513.88;;;24.47;53.41
15444;BME280;7822;48.146;11.576;2022-07-23T05:27:40;95520.63;;;24.49;53.00
15444;BME280;7822;48.146;11.576;2022-07-23T05:30:09;95524.72;;;24.52;53.17
15444;BME280;7822;48.146;11.576;2022-07-23T05:32:36;95515.72;;;24.53;53.18
15444;BME280;7822;48.146;11.576;2022-07-23T05:35:05;95517.38;;;24.54;53.43
15444;BME280;7822;48.146;11.576;2022-07-23T05:37:33;95526.53;;;24.51;53.42
15444;BME280;7822;48.146;11.576;2022-07-23T05:40:02;95532.06;;;24.50;52.74
15444;BME280;7822;48.146;11.576;2022-07-23T05:42:33;95524.50;;;24.47;53.19
15444;BME280;7822;48.146;11.576;2022-07-23T05:45:02;95518.97;;;24.48;52.82
15444;BME280;7822;48.146;11.576;2022-07-23T05:47:39;95524.09;;;24.50;52.91
15444;BME280;7822;48.146;11.576;2022-07-23T05:50:07;95536.34;;;24.51;53.01
15444;BME280;7822;48.146;11.576;2022-07-23T05:52:35;95538.97;;;24.51;52.87
15444;BME280;7822;48.146;11.576;2022-07-23T05:55:03;95551.03;;;24.53;52.68
15444;BME280;7822;48.146;11.576;2022-07-23T05:57:31;95555.50;;;24.53;52.90
15444;BME280;7822;48.146;11.576;2022-07-23T06:00:00;95565.31;;;24.52;53.18
15444;BME280;7822;48.146;11.576;2022-07-23T06:02:28;95566.31;;;24.45;52.84
15444;BME280;7822;48.146;11.576;2022-07-23T06:04:56;95561.22;;;24.43;53.42
15444;BME280;7822;48.146;11.576;2022-07-23T06:07:24;95563.88;;;24.43;53.02
15444;BME280;7822;48.146;11.576;2022-07-23T06:09:51;95562.44;;;24.41;52.80
15444;BME280;7822;48.146;11.576;2022-07-23T06:12:19;95554.50;;;24.47;53.33
15444;BME280;7822;48.146;11.576;2022-07-23T06:14:47;95557.97;;;24.54;53.57
15444;BME280;7822;48.146;11.576;2022-07-23T06:17:17;95544.31;;;24.57;53.64
15444;BME280;7822;48.146;11.576;2022-07-23T06:19:45;95544.50;;;24.56;54.12
15444;BME280;7822;48.146;11.576;2022-07-23T06:22:13;95530.81;;;24.52;54.19
15444;BME280;7822;48.146;11.576;2022-07-23T06:24:40;95521.03;;;24.53;54.38
15444;BME280;7822;48.146;11.576;2022-07-23T06:27:08;95515.50;;;24.54;54.46
15444;BME280;7822;48.146;11.576;2022-07-23T06:29:36;95505.72;;;24.61;54.28
15444;BME280;7822;48.146;11.576;2022-07-23T06:32:04;95491.66;;;24.61;54.62
15444;BME280;7822;48.146;11.576;2022-07-23T06:34:33;95501.63;;;24.59;55.68
15444;BME280;7822;48.146;11.576;2022-07-23T06:37:01;95513.06;;;24.53;55.48
15444;BME280;7822;48.146;11.576;2022-07-23T06:39:29;95525.91;;;24.43;55.92
15444;BME280;7822;48.146;11.576;2022-07-23T06:41:57;95532.16;;;24.22;56.15
15444;BME280;7822;48.146;11.576;2022-07-23T06:44:27;95528.66;;;24.08;56.74
15444;BME280;7822;48.146;11.576;2022-07-23T06:46:54;95566.72;;;24.01;56.92
15444;BME280;7822;48.146;11.576;2022-07-23T06:49:22;95588.94;;;24.00;57.12
15444;BME280;7822;48.146;11.576;2022-07-23T06:51:51;95592.78;;;23.97;57.25
15444;BME280;7822;48.146;11.576;2022-07-23T06:54:19;95592.00;;;23.97;57.84
15444;BME280;7822;48.146;11.576;2022-07-23T06:56:47;95597.06;;;23.92;57.99
15444;BME280;7822;48.146;11.576;2022-07-23T06:59:15;95593.16;;;23.88;57.59
15444;BME280;7822;48.146;11.576;2022-07-23T07:01:43;95597.44;;;23.89;57.42
15444;BME280;7822;48.146;11.576;2022-07-23T07:04:10;95597.44;;;23.89;57.67
15444;BME280;7822;48.146;11.576;2022-07-23T07:06:38;95599.94;;;23.97;57.92
15444;BME280;7822;48.146;11.576;2022-07-23T07:09:07;95602.25;;;24.06;57.93
15444;BME280;7822;48.146;11.576;2022-07-23T07:11:35;95599.81;;;24.05;57.66
15444;BME280;7822;48.146;11.576;2022-07-23T07:14:03;95588.00;;;24.07;58.27
15444;BME280;7822;48.146;11.576;2022-07-23T07:16:31;95589.81;;;24.07;57.54
15444;BME280;7822;48.146;11.576;2022-07-23T07:18:59;95592.69;;;24.05;57.79
15444;BME280;7822;48.146;11.576;2022-07-23T07:21:28;95592.00;;;23.97;58.37
15444;BME280;7822;48.146;11.576;2022-07-23T07:23:56;95595.88;;;24.01;58.62
15444;BME280;7822;48.146;11.576;2022-07-23T07:26:25;95589.97;;;23.99;58.49
15444;BME280;7822;48.146;11.576;2022-07-23T07:28:53;95588.03;;;24.14;58.86
15444;BME280;7822;48.146;11.576;2022-07-23T07:31:21;95587.63;;;24.17;58.69
15444;BME280;7822;48.146;11.576;2022-07-23T07:33:49;95594.38;;;24.19;59.12
15444;BME280;7822;48.146;11.576;2022-07-23T07:36:16;95593.97;;;24.22;59.27
15444;BME280;7822;48.146;11.576;2022-07-23T07:38:45;95599.28;;;24.22;59.02
15444;BME280;7822;48.146;11.576;2022-07-23T07:41:12;95601.13;;;24.22;58.56
15444;BME280;7822;48.146;11.576;2022-07-23T07:43:42;95601.56;;;24.25;58.54
15444;BME280;7822;48.146;11.576;2022-07-23T07:46:09;95606.69;;;24.34;59.51
15444;BME280;7822;48.146;11.576;2022-07-23T07:48:37;95620.16;;;24.39;59.57
15444;BME280;7822;48.146;11.576;2022-07-23T07:51:05;95619.13;;;24.40;59.22
15444;BME280;7822;48.146;11.576;2022-07-23T07:53:34;95621.94;;;24.25;59.60
15444;BME280;7822;48.146;11.576;2022-07-23T07:56:02;95632.47;;;24.12;59.63
15444;BME280;7822;48.146;11.576;2022-07-23T07:58:31;95629.59;;;24.07;59.80
15444;BME280;7822;48.146;11.576;2022-07-23T08:01:00;95625.94;;;24.08;59.80
15444;BME280;7822;48.146;11.576;2022-07-23T08:03:30;95623.41;;;24.00;59.74
15444;BME280;7822;48.146;11.576;2022-07-23T08:05:58;95624.69;;;24.10;60.11
15444;BME280;7822;48.146;11.576;2022-07-23T08:08:26;95629.22;;;24.10;59.55
15444;BME280;7822;48.146;11.576;2022-07-23T08:10:53;95608.44;;;24.20;60.06
15444;BME280;7822;48.146;11.576;2022-07-23T08:13:21;95607.81;;;24.18;59.46
15444;BME280;7822;48.146;11.576;2022-07-23T08:15:49;95607.44;;;24.21;60.29
15444;BME280;7822;48.146;11.576;2022-07-23T08:18:20;95621.44;;;24.08;60.29
15444;BME280;7822;48.146;11.576;2022-07-23T08:20:48;95621.84;;;24.05;60.26
15444;BME280;7822;48.146;11.576;2022-07-23T08:23:16;95630.09;;;23.96;61.07
15444;BME280;7822;48.146;11.576;2022-07-23T08:25:46;95629.94;;;24.04;61.14
15444;BME280;7822;48.146;11.576;2022-07-23T08:28:17;95619.59;;;24.09;60.81
15444;BME280;7822;48.146;11.576;2022-07-23T08:30:45;95629.22;;;24.10;60.25
15444;BME280;7822;48.146;11.576;2022-07-23T08:33:14;95634.44;;;24.03;59.64
15444;BME280;7822;48.146;11.576;2022-07-23T08:36:01;95627.50;;;24.02;59.89
15444;BME280;7822;48.146;11.576;2022-07-23T08:38:30;95632.44;;;24.05;60.21
15444;BME280;7822;48.146;11.576;2022-07-23T08:40:59;95630.66;;;24.19;59.56
15444;BME280;7822;48.146;11.576;2022-07-23T08:43:28;95625.41;;;24.25;59.15
15444;BME280;7822;48.146;11.576;2022-07-23T08:45:58;95620.16;;;24.39;58.32
15444;BME280;7822;48.146;11.576;2022-07-23T08:48:30;95625.66;;;24.37;57.97
15444;BME280;7822;48.146;11.576;2022-07-23T08:51:01;95623.03;;;24.44;57.62
15444;BME280;7822;48.146;11.576;2022-07-23T08:53:30;95621.63;;;24.54;57.22
15444;BME280;7822;48.146;11.576;2022-07-23T08:55:59;95627.78;;;24.61;57.43
15444;BME280;7822;48.146;11.576;2022-07-23T08:58:29;95629.22;;;24.64;57.14
15444;BME280;7822;48.146;11.576;2022-07-23T09:00:57;95624.97;;;24.69;56.89
15444;BME280;7822;48.146;11.576;2022-07-23T09:03:27;95643.34;;;24.71;56.60
15444;BME280;7822;48.146;11.576;2022-07-23T09:05:56;95659.09;;;24.79;56.57
15444;BME280;7822;48.146;11.576;2022-07-23T09:08:34;95681.13;;;24.73;56.01
15444;BME280;7822;48.146;11.576;2022-07-23T09:11:03;95675.44;;;24.76;56.40
15444;BME280;7822;48.146;11.576;2022-07-23T09:13:37;95678.75;;;24.84;56.28
15444;BME280;7822;48.146;11.576;2022-07-23T09:16:09;95676.25;;;24.76;56.16
15444;BME280;7822;48.146;11.576;2022-07-23T09:18:42;95678.47;;;24.73;56.20
15444;BME280;7822;48.146;11.576;2022-07-23T09:21:13;95678.78;;;24.97;56.92
15444;BME280;7822;48.146;11.576;2022-07-23T09:23:44;95687.13;;;24.94;56.95
15444;BME280;7822;48.146;11.576;2022-07-23T09:26:27;95681.25;;;25.12;57.26
15444;BME280;7822;48.146;11.576;2022-07-23T09:28:59;95683.31;;;25.17;56.84
15444;BME280;7822;48.146;11.576;2022-07-23T09:31:32;95682.47;;;25.10;57.31
15444;BME280;7822;48.146;11.576;2022-07-23T09:34:08;95679.81;;;25.10;57.55
15444;BME280;7822;48.146;11.576;2022-07-23T09:36:37;95677.78;;;25.12;57.62
15444;BME280;7822;48.146;11.576;2022-07-23T09:39:07;95679.03;;;25.16;57.51
15444;BME280;7822;48.146;11.576;2022-07-23T09:41:37;95688.81;;;25.09;56.92
15444;BME280;7822;48.146;11.576;2022-07-23T09:44:11;95682.50;;;25.23;56.55
15444;BME280;7822;48.146;11.576;2022-07-23T09:46:39;95677.19;;;25.29;56.36
15444;BME280;7822;48.146;11.576;2022-07-23T09:49:13;95667.59;;;25.28;56.89
15444;BME280;7822;48.146;11.576;2022-07-23T09:51:50;95677.88;;;25.44;56.75
15444;BME280;7822;48.146;11.576;2022-07-23T09:54:32;95658.47;;;25.50;52.30
15444;BME280;7822;48.146;11.576;2022-07-23T09:57:03;95666.44;;;25.70;53.81
15444;BME280;7822;48.146;11.576;2022-07-23T09:59:34;95656.00;;;25.75;52.96
15444;BME280;7822;48.146;11.576;2022-07-23T10:02:02;95660.72;;;25.80;52.03
15444;BME280;7822;48.146;11.576;2022-07-23T10:04:32;95652.91;;;25.85;51.63
15444;BME280;7822;48.146;11.576;2022-07-23T10:07:02;95648.84;;;25.95;50.65
15444;BME280;7822;48.146;11.576;2022-07-23T10:09:33;95654.31;;;26.00;50.37
15444;BME280;7822;48.146;11.576;2022-07-23T10:12:03;95652.09;;;26.04;49.00
15444;BME280;7822;48.146;11.576;2022-07-23T10:14:39;95654.31;;;26.00;49.47
15444;BME280;7822;48.146;11.576;2022-07-23T10:17:08;95655.97;;;26.01;49.59
15444;BME280;7822;48.146;11.576;2022-07-23T10:19:36;95648.16;;;26.06;49.15
15444;BME280;7822;48.146;11.576;2022-07-23T10:22:06;95650.22;;;26.17;49.17
15444;BME280;7822;48.146;11.576;2022-07-23T10:24:52;95637.72;;;26.24;48.79
15444;BME280;7822;48.146;11.576;2022-07-23T10:27:34;95635.28;;;26.29;49.25
15444;BME280;7822;48.146;11.576;2022-07-23T10:30:06;95627.03;;;26.44;49.28
15444;BME280;7822;48.146;11.576;2022-07-23T10:32:49;95617.63;;;26.48;48.95
15444;BME280;7822;48.146;11.576;2022-07-23T10:35:29;95614.25;;;26.59;48.48
15444;BME280;7822;48.146;11.576;2022-07-23T10:38:03;95625.66;;;26.73;47.99
15444;BME280;7822;48.146;11.576;2022-07-23T10:40:36;95625.88;;;26.71;47.55
15444;BME280;7822;48.146;11.576;2022-07-23T10:43:13;95618.34;;;26.62;47.75
15444;BME280;7822;48.146;11.576;2022-07-23T10:45:47;95624.13;;;26.59;48.01
15444;BME280;7822;48.146;11.576;2022-07-23T10:48:16;95623.84;;;26.73;47.89
15444;BME280;7822;48.146;11.576;2022-07-23T10:51:05;95623.41;;;26.83;47.55
15444;BME280;7822;48.146;11.576;2022-07-23T10:53:56;95621.38;;;26.78;46.56
15444;BME280;7822;48.146;11.576;2022-07-23T10:56:50;95619.91;;;26.82;47.10
15444;BME280;7822;48.146;11.576;2022-07-23T11:02:39;95627.69;;;26.84;45.50
15444;BME280;7822;48.146;11.576;2022-07-23T11:05:09;95625.88;;;26.78;45.43
15444;BME280;7822;48.146;11.576;2022-07-23T11:08:14;95627.13;;;26.69;45.81
15444;BME280;7822;48.146;11.576;2022-07-23T11:10:47;95624.28;;;26.64;46.21
15444;BME280;7822;48.146;11.576;2022-07-23T11:13:46;95622.03;;;26.67;46.19
15444;BME280;7822;48.146;11.576;2022-07-23T11:16:20;95615.03;;;26.66;46.38
15444;BME280;7822;48.146;11.576;2022-07-23T11:19:04;95627.16;;;26.62;46.56
15444;BME280;7822;48.146;11.576;2022-07-23T11:21:43;95603.38;;;26.67;46.75
15444;BME280;7822;48.146;11.576;2022-07-23T11:24:12;95613.22;;;26.67;46.53
15444;BME280;7822;48.146;11.576;2022-07-23T11:26:43;95610.78;;;26.65;46.79
15444;BME280;7822;48.146;11.576;2022-07-23T11:29:38;95606.50;;;26.58;46.80
15444;BME280;7822;48.146;11.576;2022-07-23T11:32:29;95619.19;;;26.56;47.04
15444;BME280;7822;48.146;11.576;2022-07-23T11:34:59;95610.63;;;26.47;47.33
15444;BME280;7822;48.146;11.576;2022-07-23T11:37:31;95605.72;;;26.44;47.84
15444;BME280;7822;48.146;11.576;2022-07-23T11:40:00;95615.13;;;26.46;46.87
15444;BME280;7822;48.146;11.576;2022-07-23T11:42:30;95613.72;;;26.44;46.71
15444;BME280;7822;48.146;11.576;2022-07-23T11:44:57;95611.72;;;26.33;47.25
15444;BME280;7822;48.146;11.576;2022-07-23T11:47:26;95615.22;;;26.27;47.21
15444;BME280;7822;48.146;11.576;2022-07-23T11:49:55;95608.28;;;26.26;47.70
15444;BME280;7822;48.146;11.576;2022-07-23T11:52:27;95611.09;;;26.31;47.65
15444;BME280;7822;48.146;11.576;2022-07-23T11:54:57;95607.63;;;26.37;47.22
15444;BME280;7822;48.146;11.576;2022-07-23T11:57:27;95618.47;;;26.35;47.73
15444;BME280;7822;48.146;11.576;2022-07-23T12:00:00;95615.59;;;26.37;48.14
15444;BME280;7822;48.146;11.576;2022-07-23T12:02:30;95614.97;;;26.35;47.97
15444;BME280;7822;48.146;11.576;2022-07-23T12:04:58;95604.16;;;26.30;48.18
15444;BME280;7822;48.146;11.576;2022-07-23T12:07:28;95600.28;;;26.32;48.51
15444;BME280;7822;48.146;11.576;2022-07-23T12:09:58;95617.44;;;26.36;48.26
15444;BME280;7822;48.146;11.576;2022-07-23T12:12:26;95611.94;;;26.25;48.47
15444;BME280;7822;48.146;11.576;2022-07-23T12:14:56;95609.69;;;26.28;48.44
15444;BME280;7822;48.146;11.576;2022-07-23T12:17:28;95614.25;;;26.15;48.96
15444;BME280;7822;48.146;11.576;2022-07-23T12:19:58;95621.59;;;26.19;49.01
15444;BME280;7822;48.146;11.576;2022-07-23T12:22:33;95602.78;;;26.14;49.27
15444;BME280;7822;48.146;11.576;2022-07-23T12:25:04;95610.13;;;26.19;49.14
15444;BME280;7822;48.146;11.576;2022-07-23T12:27:32;95612.16;;;26.23;49.37
15444;BME280;7822;48.146;11.576;2022-07-23T12:30:21;95606.81;;;26.30;49.32
15444;BME280;7822;48.146;11.576;2022-07-23T12:32:51;95607.25;;;26.20;49.63
15444;BME280;7822;48.146;11.576;2022-07-23T12:35:21;95604.97;;;26.24;49.71
15444;BME280;7822;48.146;11.576;2022-07-23T12:37:51;95607.22;;;26.27;49.50
15444;BME280;7822;48.146;11.576;2022-07-23T12:40:24;95606.22;;;26.28;49.69
15444;BME280;7822;48.146;11.576;2022-07-23T12:42:54;95610.16;;;26.12;49.96
15444;BME280;7822;48.146;11.576;2022-07-23T12:45:24;95614.03;;;26.03;50.82
15444;BME280;7822;48.146;11.576;2022-07-23T12:47:54;95615.47;;;25.99;50.28
15444;BME280;7822;48.146;11.576;2022-07-23T12:50:37;95611.75;;;26.07;50.04
15444;BME280;7822;48.146;11.576;2022-07-23T12:53:07;95616.25;;;26.06;50.22
15444;BME280;7822;48.146;11.576;2022-07-23T12:55:41;95612.81;;;25.99;50.59
15444;BME280;7822;48.146;11.576;2022-07-23T12:58:40;95620.59;;;26.01;50.12
15444;BME280;7822;48.146;11.576;2022-07-23T13:01:22;95615.25;;;26.01;50.60
15444;BME280;7822;48.146;11.576;2022-07-23T13:03:57;95613.44;;;25.95;50.89
15444;BME280;7822;48.146;11.576;2022-07-23T13:06:25;95619.13;;;26.05;50.43
15444;BME280;7822;48.146;11.576;2022-07-23T13:08:55;95621.63;;;26.13;50.54
15444;BME280;7822;48.146;11.576;2022-07-23T13:11:23;95628.34;;;26.15;50.68
15444;BME280;7822;48.146;11.576;2022-07-23T13:13:51;95624.03;;;26.08;50.35
15444;BME280;7822;48.146;11.576;2022-07-23T13:16:21;95624.66;;;26.03;50.90
15444;BME280;7822;48.146;11.576;2022-07-23T13:18:49;95622.84;;;26.04;50.80